Time;durP1;ratioP1;P1;durP2;ratioP2;P2;SDS_P1;SDS_P2;PMS_P1;PMS_P2;Temp;Humidity;BMP_temperature;BMP_pressure;BME280_temperature;BME280_humidity;BME280_pressure;Samples;Min_cycle;Max_cycle;Signal;HPM_P1;HPM_P2
2022/09/18 00:01:40;;;;;;;10.27;2.33;;;;;;;11.36;97.11;100824.66;4999927;28;20207;-75
2022/09/18 00:04:09;;;;;;;11.97;2.30;;;;;;;11.32;97.23;100816.06;4994109;28;21043;-76
2022/09/18 00:06:37;;;;;;;11.97;2.00;;;;;;;11.29;97.61;100821.13;4990879;28;20187;-75
2022/09/18 00:09:05;;;;;;;10.30;1.97;;;;;;;11.25;97.83;100824.47;4999353;28;20187;-75
2022/09/18 00:11:38;;;;;;;10.80;2.40;;;;;;;11.23;97.67;100818.50;5002463;28;20261;-76
2022/09/18 00:14:05;;;;;;;10.53;2.43;;;;;;;11.21;97.89;100815.06;4995670;28;20302;-75
2022/09/18 00:16:31;;;;;;;12.17;2.00;;;;;;;11.18;97.55;100811.56;4999158;28;20203;-75
2022/09/18 00:18:56;;;;;;;12.00;2.43;;;;;;;11.16;97.55;100816.66;4999057;28;20246;-76
2022/09/18 00:21:24;;;;;;;10.20;2.03;;;;;;;11.13;97.23;100816.63;4998746;28;20350;-76
2022/09/18 00:23:53;;;;;;;8.13;2.57;;;;;;;11.10;97.23;100818.28;5005054;28;20687;-75
2022/09/18 00:26:20;;;;;;;14.23;2.23;;;;;;;11.06;97.18;100814.78;4994706;28;20564;-75
2022/09/18 00:28:45;;;;;;;10.23;1.90;;;;;;;11.06;97.22;100819.06;5000875;28;20199;-75
2022/09/18 00:31:17;;;;;;;8.57;2.07;;;;;;;11.01;96.88;100816.41;4998015;28;20211;-75
2022/09/18 00:33:43;;;;;;;9.20;1.60;;;;;;;10.94;96.43;100818.84;5002606;28;20226;-74
2022/09/18 00:36:12;;;;;;;8.77;1.73;;;;;;;10.89;96.61;100831.56;4998317;28;20191;-75
2022/09/18 00:38:38;;;;;;;16.17;2.73;;;;;;;10.86;96.31;100826.38;5011026;28;20291;-75
2022/09/18 00:41:06;;;;;;;11.27;1.90;;;;;;;10.86;96.97;100836.63;4987342;28;20361;-74
2022/09/18 00:43:34;;;;;;;10.97;1.77;;;;;;;10.82;97.41;100842.53;4980728;28;20196;-74
2022/09/18 00:46:24;;;;;;;10.77;2.30;;;;;;;10.77;96.97;100845.84;5002539;28;20201;-74
2022/09/18 00:49:12;;;;;;;8.97;1.90;;;;;;;10.76;97.36;100845.00;4996428;28;20282;-74
2022/09/18 00:51:39;;;;;;;9.17;1.70;;;;;;;10.71;97.28;100845.72;5000732;28;20264;-74
2022/09/18 00:54:13;;;;;;;8.93;2.43;;;;;;;10.76;97.42;100850.13;4997488;28;20229;-74
2022/09/18 00:56:39;;;;;;;14.70;2.50;;;;;;;10.75;97.54;100850.09;4998292;28;20209;-75
2022/09/18 00:59:04;;;;;;;7.63;1.67;;;;;;;10.76;97.82;100849.25;4995305;28;20191;-74
2022/09/18 01:01:30;;;;;;;13.00;2.57;;;;;;;10.80;97.02;100845.91;4999017;28;20238;-74
2022/09/18 01:03:55;;;;;;;10.37;2.03;;;;;;;10.77;96.89;100845.84;4998281;28;20191;-75
2022/09/18 01:06:49;;;;;;;12.07;2.00;;;;;;;10.82;97.03;100847.66;4997533;28;20192;-75
2022/09/18 01:09:24;;;;;;;10.27;2.10;;;;;;;10.87;96.66;100850.31;4996672;28;20219;-75
2022/09/18 01:11:58;;;;;;;10.20;2.23;;;;;;;10.91;96.87;100844.38;4995137;28;20199;-74
2022/09/18 01:14:46;;;;;;;12.17;2.40;;;;;;;10.90;96.90;100846.09;4986548;28;20211;-74
2022/09/18 01:17:28;;;;;;;12.90;2.20;;;;;;;10.92;97.01;100854.66;4985838;28;20254;-74
2022/09/18 01:20:18;;;;;;;9.10;1.77;;;;;;;10.94;96.50;100859.81;4991922;28;20311;-74
2022/09/18 01:22:59;;;;;;;7.80;1.57;;;;;;;10.95;96.66;100857.28;4996487;28;20184;-74
2022/09/18 01:25:43;;;;;;;8.60;2.13;;;;;;;10.93;96.26;100858.94;4986643;28;20216;-75
2022/09/18 01:28:27;;;;;;;8.77;1.70;;;;;;;10.94;95.74;100862.38;4991272;28;20618;-75
2022/09/18 01:31:00;;;;;;;10.00;1.90;;;;;;;10.89;96.65;100853.75;5004152;28;20203;-75
2022/09/18 01:33:57;;;;;;;12.03;1.83;;;;;;;10.87;96.04;100850.31;4991841;28;20223;-75
2022/09/18 01:36:25;;;;;;;8.53;1.90;;;;;;;10.82;96.14;100841.66;5002039;28;20195;-74
2022/09/18 01:38:58;;;;;;;10.07;1.80;;;;;;;10.77;95.98;100846.72;4992322;28;20211;-75
2022/09/18 01:41:26;;;;;;;9.43;2.17;;;;;;;10.70;96.21;100836.34;4988575;28;20212;-75
2022/09/18 01:43:58;;;;;;;11.87;1.97;;;;;;;10.68;95.79;100828.63;4982372;28;20214;-74
2022/09/18 01:46:24;;;;;;;7.87;2.00;;;;;;;10.67;95.58;100832.00;4991434;28;20273;-75
2022/09/18 01:49:02;;;;;;;8.33;1.93;;;;;;;10.67;96.16;100829.47;4986931;28;20562;-75
2022/09/18 01:51:42;;;;;;;9.30;1.77;;;;;;;10.64;95.93;100828.53;4990078;28;20211;-75
2022/09/18 01:54:20;;;;;;;8.77;1.70;;;;;;;10.55;96.17;100829.22;4988349;28;20206;-76
2022/09/18 01:56:56;;;;;;;14.30;2.33;;;;;;;10.55;95.71;100836.91;4989193;28;20649;-75
2022/09/18 01:59:28;;;;;;;8.83;1.80;;;;;;;10.48;96.07;100831.63;4977835;28;20191;-75
2022/09/18 02:02:07;;;;;;;8.53;1.60;;;;;;;10.46;96.28;100830.75;4980719;28;20672;-75
2022/09/18 02:04:37;;;;;;;13.13;2.67;;;;;;;10.47;95.81;100835.03;4989010;28;20191;-76
2022/09/18 02:07:20;;;;;;;10.77;1.50;;;;;;;10.44;96.57;100829.84;4987477;28;20195;-76
2022/09/18 02:09:46;;;;;;;8.83;2.23;;;;;;;10.43;96.45;100838.38;4985762;28;20208;-75
2022/09/18 02:12:18;;;;;;;8.83;2.10;;;;;;;10.41;96.34;100838.31;4987460;28;20270;-75
2022/09/18 02:14:52;;;;;;;7.10;1.50;;;;;;;10.37;96.41;100833.13;4981236;28;20620;-75
2022/09/18 02:17:45;;;;;;;10.20;2.20;;;;;;;10.35;96.30;100845.00;4977869;28;20189;-75
2022/09/18 02:20:18;;;;;;;9.23;2.07;;;;;;;10.34;96.74;100843.28;4983789;28;20210;-74
2022/09/18 02:22:45;;;;;;;10.80;1.83;;;;;;;10.36;96.34;100844.19;4994856;28;20188;-75
2022/09/18 02:25:16;;;;;;;14.70;2.43;;;;;;;10.33;96.63;100844.97;4983792;28;20649;-75
2022/09/18 02:27:42;;;;;;;10.63;1.97;;;;;;;10.29;96.60;100845.78;4983184;28;20215;-76
2022/09/18 02:30:08;;;;;;;8.17;1.80;;;;;;;10.27;96.82;100837.19;4982544;28;20700;-75
2022/09/18 02:32:36;;;;;;;8.50;1.87;;;;;;;10.21;96.18;100843.88;4977458;28;20196;-75
2022/09/18 02:35:07;;;;;;;11.77;2.03;;;;;;;10.15;96.16;100843.75;4982529;28;20207;-75
2022/09/18 02:37:44;;;;;;;10.57;2.20;;;;;;;10.16;96.28;100848.03;4980491;28;20188;-75
2022/09/18 02:40:28;;;;;;;9.57;2.13;;;;;;;10.13;96.51;100845.44;4992227;28;20436;-75
2022/09/18 02:43:15;;;;;;;11.30;2.10;;;;;;;10.12;96.69;100846.25;4987849;28;20199;-76
2022/09/18 02:46:13;;;;;;;11.57;2.40;;;;;;;10.05;96.36;100842.69;4985442;28;20192;-75
2022/09/18 02:48:51;;;;;;;13.83;2.33;;;;;;;10.05;96.94;100837.56;4923009;28;20202;-75
2022/09/18 02:51:28;;;;;;;15.53;2.70;;;;;;;10.05;96.94;100834.16;4981588;28;20298;-75
2022/09/18 02:54:09;;;;;;;10.00;2.07;;;;;;;9.95;96.85;100839.88;4991455;28;20354;-75
2022/09/18 02:56:38;;;;;;;12.40;1.80;;;;;;;9.96;96.14;100832.22;4999867;28;20192;-74
2022/09/18 02:59:28;;;;;;;14.13;2.37;;;;;;;9.93;96.39;100834.72;4982280;28;20191;-75
2022/09/18 03:01:57;;;;;;;10.17;1.77;;;;;;;9.97;95.75;100827.97;4981554;28;20203;-75
2022/09/18 03:04:25;;;;;;;12.60;2.00;;;;;;;9.98;96.17;100827.13;4979606;28;20235;-75
2022/09/18 03:07:02;;;;;;;10.20;1.80;;;;;;;10.00;95.82;100830.63;4989599;28;20194;-75
2022/09/18 03:09:28;;;;;;;9.50;2.03;;;;;;;9.98;96.18;100832.25;5003210;28;20255;-74
2022/09/18 03:11:54;;;;;;;9.53;2.30;;;;;;;9.95;96.36;100824.53;4990774;28;20263;-75
2022/09/18 03:14:20;;;;;;;10.60;2.40;;;;;;;9.90;96.19;100823.59;4992580;28;20218;-74
2022/09/18 03:16:46;;;;;;;10.97;2.10;;;;;;;9.92;95.46;100816.78;4995054;28;20231;-75
2022/09/18 03:19:13;;;;;;;10.20;1.93;;;;;;;9.93;95.23;100821.94;4986199;28;20279;-75
2022/09/18 03:21:39;;;;;;;11.70;2.27;;;;;;;9.93;95.69;100826.19;4976171;28;20242;-75
2022/09/18 03:24:06;;;;;;;11.73;2.07;;;;;;;9.92;95.74;100821.91;4992373;28;20629;-74
2022/09/18 03:26:34;;;;;;;12.13;2.30;;;;;;;9.90;95.63;100813.34;4995838;28;20841;-77
2022/09/18 03:29:00;;;;;;;13.10;2.07;;;;;;;9.92;95.46;100816.78;4996319;28;20199;-75
2022/09/18 03:31:28;;;;;;;11.50;2.10;;;;;;;9.93;95.18;100813.41;4993710;28;20246;-74
2022/09/18 03:33:54;;;;;;;7.83;1.40;;;;;;;9.97;95.40;100807.53;5008675;28;20715;-74
2022/09/18 03:36:20;;;;;;;12.03;1.90;;;;;;;10.00;95.31;100803.31;5001017;28;20212;-74
2022/09/18 03:38:48;;;;;;;10.67;2.20;;;;;;;10.05;94.98;100796.63;4998115;28;20192;-74
2022/09/18 03:41:13;;;;;;;10.03;1.50;;;;;;;10.12;94.68;100813.84;5000956;28;20214;-75
2022/09/18 03:43:40;;;;;;;9.97;2.47;;;;;;;10.15;94.07;100813.06;5010111;28;20673;-74
2022/09/18 03:46:08;;;;;;;10.57;1.67;;;;;;;10.16;94.25;100817.31;5000407;28;20202;-74
2022/09/18 03:48:34;;;;;;;9.83;1.90;;;;;;;10.19;93.94;100799.50;4997151;28;20192;-75
2022/09/18 03:51:00;;;;;;;12.17;2.00;;;;;;;10.21;93.06;100805.50;4992322;28;20238;-74
2022/09/18 03:53:25;;;;;;;11.50;1.60;;;;;;;10.23;93.53;100811.53;4991441;28;20711;-74
2022/09/18 03:56:11;;;;;;;10.23;1.53;;;;;;;10.22;92.69;100818.31;5003666;28;20209;-75
2022/09/18 03:59:09;;;;;;;7.07;2.00;;;;;;;10.21;93.07;100819.16;4983212;28;20613;-74
2022/09/18 04:02:00;;;;;;;8.00;2.03;;;;;;;10.20;93.00;100816.56;4999211;28;20282;-74
2022/09/18 04:04:26;;;;;;;9.57;2.03;;;;;;;10.17;92.67;100819.94;5005336;28;20323;-75
2022/09/18 04:07:18;;;;;;;7.13;1.40;;;;;;;10.10;92.67;100823.19;4985997;28;20200;-74
2022/09/18 04:09:50;;;;;;;10.03;1.80;;;;;;;10.08;92.73;100822.28;5004039;28;20561;-74
2022/09/18 04:12:15;;;;;;;8.17;2.20;;;;;;;10.03;92.54;100818.75;5001451;28;20194;-74
2022/09/18 04:14:43;;;;;;;13.20;2.37;;;;;;;9.98;91.96;100820.34;4999282;28;20739;-74
2022/09/18 04:17:09;;;;;;;9.07;2.13;;;;;;;9.88;92.15;100820.13;4972977;28;20282;-74
2022/09/18 04:19:35;;;;;;;7.50;1.80;;;;;;;9.77;92.19;100812.19;5000834;28;20187;-75
2022/09/18 04:22:02;;;;;;;7.43;1.50;;;;;;;9.69;91.81;100812.88;4998729;28;20652;-75
2022/09/18 04:24:27;;;;;;;8.00;1.40;;;;;;;9.64;92.17;100817.03;4994534;28;20188;-75
2022/09/18 04:26:53;;;;;;;8.63;1.83;;;;;;;9.63;92.71;100818.69;5000276;28;20196;-75
2022/09/18 04:29:21;;;;;;;9.70;2.00;;;;;;;9.58;93.41;100822.00;5008421;28;20843;-75
2022/09/18 04:31:48;;;;;;;9.03;2.17;;;;;;;9.58;93.24;100814.34;5001910;28;20203;-75
2022/09/18 04:34:15;;;;;;;9.97;1.77;;;;;;;9.58;93.99;100819.44;4992620;28;20211;-74
2022/09/18 04:36:41;;;;;;;6.33;1.40;;;;;;;9.59;94.56;100822.00;5002822;28;20198;-74
2022/09/18 04:39:07;;;;;;;11.10;1.70;;;;;;;9.54;94.50;100822.75;4975866;28;20192;-74
2022/09/18 04:41:34;;;;;;;8.53;1.80;;;;;;;9.50;95.14;100824.34;4999741;28;20210;-75
2022/09/18 04:44:02;;;;;;;10.50;2.10;;;;;;;9.50;94.74;100820.97;4992293;28;20183;-76
2022/09/18 04:46:28;;;;;;;6.47;1.90;;;;;;;9.49;94.99;100817.53;5005195;28;20276;-75
2022/09/18 04:48:53;;;;;;;6.87;1.37;;;;;;;9.47;95.29;100816.63;4996721;28;20191;-74
2022/09/18 04:51:22;;;;;;;10.73;2.17;;;;;;;9.50;95.00;100820.97;4998550;28;20203;-74
2022/09/18 04:53:47;;;;;;;10.37;2.20;;;;;;;9.53;95.55;100846.56;4996156;28;20211;-75
2022/09/18 04:56:13;;;;;;;11.30;2.30;;;;;;;9.65;96.04;100860.53;4990159;28;20180;-74
2022/09/18 04:58:42;;;;;;;8.33;1.57;;;;;;;9.68;96.55;100845.22;4984774;28;20183;-74
2022/09/18 05:01:09;;;;;;;15.53;2.60;;;;;;;9.68;96.56;100845.22;4994196;28;20220;-73
2022/09/18 05:03:34;;;;;;;7.63;1.47;;;;;;;9.64;97.26;100827.25;4988635;28;20782;-75
2022/09/18 05:06:00;;;;;;;10.20;2.10;;;;;;;9.59;97.79;100821.16;4983193;28;20818;-74
2022/09/18 05:08:28;;;;;;;12.33;1.97;;;;;;;9.60;98.34;100810.97;4992622;28;20188;-74
2022/09/18 05:10:53;;;;;;;13.90;2.60;;;;;;;9.62;98.20;100811.00;4977472;28;20229;-74
2022/09/18 05:13:18;;;;;;;9.07;1.73;;;;;;;9.59;97.82;100811.78;4993020;28;20685;-75
2022/09/18 05:16:06;;;;;;;11.07;2.07;;;;;;;9.59;97.12;100819.47;4990792;28;20695;-76
2022/09/18 05:18:32;;;;;;;7.90;2.00;;;;;;;9.55;97.14;100814.25;5003589;28;20356;-76
2022/09/18 05:21:04;;;;;;;14.10;2.33;;;;;;;9.53;97.37;100816.78;4996830;28;20215;-76
2022/09/18 05:23:33;;;;;;;11.10;2.40;;;;;;;9.52;97.77;100812.50;4988469;28;20181;-76
2022/09/18 05:25:59;;;;;;;11.63;2.00;;;;;;;9.53;97.75;100811.66;4996991;28;20246;-75
2022/09/18 05:28:25;;;;;;;12.10;1.87;;;;;;;9.49;98.02;100814.97;4993315;28;20541;-76
2022/09/18 05:30:57;;;;;;;12.93;2.03;;;;;;;9.45;97.95;100818.28;4995314;28;20218;-75
2022/09/18 05:33:23;;;;;;;10.93;2.30;;;;;;;9.49;97.57;100822.63;4991651;28;20194;-76
2022/09/18 05:35:52;;;;;;;7.50;1.97;;;;;;;9.55;97.25;100827.91;4986330;28;20189;-76
2022/09/18 05:38:18;;;;;;;11.10;1.93;;;;;;;9.65;97.92;100823.84;4987613;28;20192;-76
2022/09/18 05:40:44;;;;;;;10.87;2.23;;;;;;;9.67;97.09;100822.22;4986018;28;20289;-76
2022/09/18 05:43:09;;;;;;;10.77;2.37;;;;;;;9.76;97.45;100828.38;4987727;28;20186;-76
2022/09/18 05:45:36;;;;;;;10.97;2.10;;;;;;;9.87;97.25;100824.34;5001738;28;20194;-76
2022/09/18 05:48:12;;;;;;;11.87;1.97;;;;;;;9.86;97.15;100822.63;4989906;28;20183;-76
2022/09/18 05:50:37;;;;;;;10.07;2.13;;;;;;;9.82;96.63;100825.94;4984718;28;20254;-75
2022/09/18 05:53:13;;;;;;;6.80;2.03;;;;;;;9.80;97.55;100831.84;4995476;28;20190;-76
2022/09/18 05:55:47;;;;;;;10.43;2.67;;;;;;;9.86;97.59;100835.41;4995344;28;20188;-76
2022/09/18 05:58:15;;;;;;;13.73;2.20;;;;;;;9.88;97.47;100849.13;4988141;28;20200;-76
2022/09/18 06:00:41;;;;;;;6.87;1.83;;;;;;;9.89;97.03;100849.97;4968741;28;20266;-76
2022/09/18 06:03:13;;;;;;;10.03;1.53;;;;;;;9.95;97.31;100839.88;4988501;28;20192;-75
2022/09/18 06:05:40;;;;;;;8.70;1.57;;;;;;;10.01;96.50;100847.69;4986358;28;20189;-75
2022/09/18 06:08:10;;;;;;;10.57;2.30;;;;;;;9.98;97.06;100845.06;4995679;28;20671;-76
2022/09/18 06:10:38;;;;;;;6.63;1.67;;;;;;;9.95;95.99;100843.28;4992598;28;20212;-76
2022/09/18 06:13:16;;;;;;;11.73;2.33;;;;;;;9.93;96.26;100836.41;4988044;28;20669;-75
2022/09/18 06:15:47;;;;;;;9.27;2.00;;;;;;;9.98;95.87;100829.69;4982400;28;20199;-75
2022/09/18 06:18:14;;;;;;;5.43;1.70;;;;;;;9.99;96.33;100836.53;4985932;28;20685;-76
2022/09/18 06:20:49;;;;;;;8.17;1.67;;;;;;;10.05;95.79;100842.69;4964722;28;20212;-74
2022/09/18 06:23:17;;;;;;;8.13;1.53;;;;;;;10.16;96.52;100843.78;4997161;28;20255;-75
2022/09/18 06:26:01;;;;;;;7.33;1.50;;;;;;;10.14;95.50;100845.44;4988974;28;20208;-74
2022/09/18 06:28:33;;;;;;;5.77;1.77;;;;;;;10.08;95.58;100837.66;4985277;28;20207;-75
2022/09/18 06:31:01;;;;;;;8.07;1.70;;;;;;;10.03;95.14;100833.22;4985054;28;20210;-75
2022/09/18 06:33:35;;;;;;;8.03;1.50;;;;;;;10.07;95.05;100841.03;4967836;28;20219;-76
2022/09/18 06:36:05;;;;;;;6.17;1.90;;;;;;;10.12;95.70;100844.56;4992467;28;20195;-74
2022/09/18 06:38:38;;;;;;;8.30;2.00;;;;;;;10.15;95.41;100849.75;4979021;28;20191;-76
2022/09/18 06:41:04;;;;;;;6.27;1.37;;;;;;;10.22;94.82;100836.22;4989696;28;20219;-76
2022/09/18 06:43:42;;;;;;;9.73;1.70;;;;;;;10.24;94.88;100837.16;4989961;28;20180;-76
2022/09/18 06:46:25;;;;;;;13.37;1.80;;;;;;;10.32;95.03;100847.53;4993114;28;20653;-75
2022/09/18 06:48:52;;;;;;;9.23;2.00;;;;;;;10.48;94.19;100847.88;4988395;28;20274;-75
2022/09/18 06:51:17;;;;;;;10.47;1.90;;;;;;;10.52;94.06;100841.97;4980820;28;20365;-76
2022/09/18 06:54:13;;;;;;;9.97;1.73;;;;;;;10.45;94.09;100835.00;4982376;28;20224;-76
2022/09/18 06:56:40;;;;;;;9.63;1.93;;;;;;;10.38;94.13;100837.41;4972940;28;20271;-75
2022/09/18 06:59:08;;;;;;;9.93;1.60;;;;;;;10.39;94.24;100836.56;4973548;28;20287;-74
2022/09/18 07:01:35;;;;;;;8.03;2.03;;;;;;;10.74;93.10;100838.13;4973351;28;20282;-75
2022/09/18 07:04:08;;;;;;;9.47;2.13;;;;;;;10.89;92.53;100852.06;4970894;28;20225;-74
2022/09/18 07:06:38;;;;;;;8.53;1.93;;;;;;;11.00;92.64;100842.88;4972994;28;20681;-75
2022/09/18 07:09:04;;;;;;;8.93;1.50;;;;;;;10.90;92.52;100840.09;4990457;28;20353;-76
2022/09/18 07:11:58;;;;;;;4.67;1.50;;;;;;;10.92;91.86;100830.78;4985219;28;20200;-76
2022/09/18 07:14:37;;;;;;;7.17;1.40;;;;;;;11.32;89.98;100826.31;4998535;28;20241;-76
2022/09/18 07:17:09;;;;;;;6.30;1.60;;;;;;;11.58;89.83;100827.59;4998571;28;20202;-76
2022/09/18 07:19:35;;;;;;;6.50;1.60;;;;;;;11.57;89.18;100830.97;5002692;28;20195;-76
2022/09/18 07:22:01;;;;;;;8.77;2.03;;;;;;;11.86;88.20;100831.44;4998176;28;20187;-75
2022/09/18 07:24:30;;;;;;;7.60;1.90;;;;;;;12.43;87.46;100835.63;5004368;28;20222;-75
2022/09/18 07:26:56;;;;;;;11.63;2.30;;;;;;;11.81;87.57;100835.66;5001024;28;20235;-75
2022/09/18 07:29:22;;;;;;;7.03;1.57;;;;;;;11.53;88.89;100838.63;5016656;28;20270;-75
2022/09/18 07:31:49;;;;;;;7.80;2.00;;;;;;;11.68;88.50;100826.06;5001788;28;20635;-76
2022/09/18 07:34:15;;;;;;;8.80;1.77;;;;;;;12.37;86.89;100839.81;4998740;28;20200;-76
2022/09/18 07:36:40;;;;;;;8.50;1.60;;;;;;;12.02;86.24;100841.06;4997633;28;20196;-76
2022/09/18 07:39:06;;;;;;;9.83;1.70;;;;;;;11.69;88.06;100831.22;5000647;28;20191;-76
2022/09/18 07:41:48;;;;;;;8.77;1.90;;;;;;;11.43;89.27;100835.03;5001866;28;20195;-75
2022/09/18 07:44:14;;;;;;;5.53;1.47;;;;;;;11.45;90.25;100830.81;5000046;28;20237;-76
2022/09/18 07:46:39;;;;;;;8.27;2.10;;;;;;;11.73;89.77;100832.97;4995766;28;20282;-74
2022/09/18 07:49:07;;;;;;;6.47;1.43;;;;;;;11.62;88.68;100833.66;5001569;28;20513;-76
2022/09/18 07:51:33;;;;;;;10.37;1.93;;;;;;;11.51;89.82;100833.47;5001610;28;20211;-77
2022/09/18 07:53:58;;;;;;;8.93;1.87;;;;;;;11.65;89.42;100826.88;4999661;28;20215;-77
2022/09/18 07:57:02;;;;;;;4.87;1.70;;;;;;;12.56;87.54;100821.19;4986372;28;20203;-76
2022/09/18 07:59:37;;;;;;;9.30;2.17;;;;;;;12.41;87.42;100811.63;4998540;28;20182;-76
2022/09/18 08:02:04;;;;;;;5.97;1.80;;;;;;;11.77;87.58;100821.06;4999967;28;20189;-76
2022/09/18 08:04:30;;;;;;;7.80;2.07;;;;;;;11.80;87.23;100819.38;5001892;28;20183;-76
2022/09/18 08:07:04;;;;;;;8.03;1.97;;;;;;;11.62;87.90;100814.00;4997052;28;20190;-76
2022/09/18 08:09:50;;;;;;;8.40;2.13;;;;;;;12.46;86.95;100815.13;4998448;28;20211;-76
2022/09/18 08:12:34;;;;;;;5.00;1.47;;;;;;;12.73;84.64;100810.25;5000168;28;20577;-77
2022/09/18 08:15:19;;;;;;;7.47;1.53;;;;;;;13.67;83.96;100809.34;4997364;28;20226;-76
2022/09/18 08:18:05;;;;;;;6.70;1.90;;;;;;;13.16;82.81;100815.84;5005959;28;20294;-75
2022/09/18 08:20:55;;;;;;;4.80;1.50;;;;;;;13.52;81.88;100804.09;4999355;28;20219;-75
2022/09/18 08:23:28;;;;;;;8.87;1.57;;;;;;;13.17;82.32;100802.13;5002151;28;20184;-76
2022/09/18 08:25:59;;;;;;;10.20;1.93;;;;;;;14.36;79.86;100803.72;5004103;28;20199;-76
2022/09/18 08:28:24;;;;;;;8.27;1.60;;;;;;;13.98;78.87;100812.94;4999107;28;20217;-76
2022/09/18 08:30:58;;;;;;;7.80;1.53;;;;;;;13.99;79.01;100809.53;5001925;28;20207;-75
2022/09/18 08:33:24;;;;;;;6.80;1.60;;;;;;;14.19;77.26;100800.19;4995575;28;20207;-76
2022/09/18 08:35:50;;;;;;;4.67;1.73;;;;;;;14.53;76.70;100807.19;4998779;28;20184;-75
2022/09/18 08:38:30;;;;;;;6.50;1.67;;;;;;;14.74;74.46;100802.09;4996723;28;20187;-75
2022/09/18 08:41:42;;;;;;;4.97;1.50;;;;;;;14.68;75.88;100822.72;5003170;28;20592;-75
2022/09/18 08:44:12;;;;;;;9.33;1.87;;;;;;;14.06;79.09;100814.72;4997195;28;20187;-75
2022/09/18 08:47:09;;;;;;;7.33;1.70;;;;;;;13.46;81.76;100810.91;4982426;28;20247;-75
2022/09/18 08:49:49;;;;;;;11.60;3.53;;;;;;;13.16;85.63;100801.25;5001893;28;20286;-75
2022/09/18 08:52:21;;;;;;;9.23;2.47;;;;;;;13.28;85.35;100792.78;4991973;28;20196;-75
2022/09/18 08:55:18;;;;;;;7.53;1.60;;;;;;;13.02;84.72;100786.59;5002029;28;20264;-75
2022/09/18 08:58:23;;;;;;;8.13;2.17;;;;;;;13.03;85.81;100791.72;4997515;28;20195;-76
2022/09/18 09:00:54;;;;;;;5.57;1.83;;;;;;;13.28;84.15;100785.94;4995371;28;20228;-75
2022/09/18 09:03:36;;;;;;;6.93;1.97;;;;;;;13.37;83.61;100783.44;5003332;28;20541;-76
2022/09/18 09:06:08;;;;;;;7.03;1.53;;;;;;;14.14;83.74;100774.41;4992169;28;20187;-76
2022/09/18 09:09:03;;;;;;;6.13;1.70;;;;;;;14.91;78.98;100770.31;4985944;28;20191;-76
2022/09/18 09:11:44;;;;;;;5.93;1.60;;;;;;;15.43;78.34;100774.63;5013628;28;20216;-75
2022/09/18 09:14:28;;;;;;;6.70;1.77;;;;;;;16.40;73.14;100764.88;4994960;28;20230;-75
2022/09/18 09:17:08;;;;;;;5.47;1.40;;;;;;;17.25;70.61;100755.59;5000483;28;20616;-74
2022/09/18 09:19:42;;;;;;;5.30;1.50;;;;;;;17.26;68.60;100755.59;4978726;28;20276;-74
2022/09/18 09:22:33;;;;;;;10.00;1.90;;;;;;;15.59;71.10;100760.84;4996572;28;20201;-74
2022/09/18 09:25:27;;;;;;;6.57;1.50;;;;;;;15.60;72.34;100759.97;4999373;28;20195;-74
2022/09/18 09:28:12;;;;;;;6.27;1.47;;;;;;;14.78;74.33;100760.84;4995000;28;20192;-74
2022/09/18 09:30:58;;;;;;;6.63;1.60;;;;;;;14.29;76.54;100758.19;4994517;28;20226;-74
2022/09/18 09:33:56;;;;;;;9.50;2.17;;;;;;;14.05;80.40;100776.09;4996677;28;20215;-74
2022/09/18 09:36:45;;;;;;;6.23;1.90;;;;;;;13.51;85.16;100811.81;5000750;28;20255;-75
2022/09/18 09:39:21;;;;;;;5.13;1.10;;;;;;;12.15;85.55;100819.84;4977771;28;20183;-75
2022/09/18 09:42:02;;;;;;;5.93;1.23;;;;;;;12.06;82.45;100794.94;4996094;28;20202;-75
2022/09/18 09:44:59;;;;;;;4.20;0.80;;;;;;;12.14;80.81;100793.34;4991991;28;20179;-74
2022/09/18 09:47:44;;;;;;;3.57;1.00;;;;;;;12.01;82.03;100786.31;4992427;28;20196;-73
2022/09/18 09:50:39;;;;;;;4.37;1.13;;;;;;;12.05;83.20;100779.50;4982113;28;20204;-74
2022/09/18 09:53:09;;;;;;;4.50;1.20;;;;;;;13.51;80.95;100786.94;4991650;28;20187;-75
2022/09/18 09:55:47;;;;;;;3.23;0.97;;;;;;;18.54;62.03;100757.59;4979485;28;20205;-74
2022/09/18 09:58:38;;;;;;;5.97;1.10;;;;;;;22.03;50.50;100741.34;4996006;28;20277;-75
2022/09/18 10:01:04;;;;;;;6.17;1.13;;;;;;;17.96;61.77;100759.19;4988717;28;20593;-75
2022/09/18 10:03:42;;;;;;;5.00;1.20;;;;;;;16.07;66.99;100760.66;4994679;28;20207;-73
2022/09/18 10:06:37;;;;;;;5.80;1.30;;;;;;;16.97;65.95;100759.28;4988496;28;20271;-74
2022/09/18 10:09:18;;;;;;;3.43;1.27;;;;;;;14.93;71.40;100765.16;4979851;28;20186;-74
2022/09/18 10:11:58;;;;;;;3.30;1.03;;;;;;;14.03;73.73;100765.78;4993621;28;20643;-73
2022/09/18 10:14:29;;;;;;;4.20;1.40;;;;;;;13.67;75.20;100768.16;4978971;28;20208;-73
2022/09/18 10:16:56;;;;;;;4.73;1.37;;;;;;;13.24;75.93;100766.19;4990625;28;20198;-73
2022/09/18 10:19:31;;;;;;;4.90;1.23;;;;;;;13.10;77.93;100767.78;4983432;28;20180;-73
2022/09/18 10:21:57;;;;;;;4.40;1.10;;;;;;;12.92;78.52;100770.16;4990317;28;20193;-74
2022/09/18 10:24:43;;;;;;;4.20;1.20;;;;;;;12.85;79.83;100766.69;4972835;28;20645;-72
2022/09/18 10:27:13;;;;;;;4.97;1.20;;;;;;;12.52;80.07;100773.19;4984902;28;20304;-73
2022/09/18 10:29:41;;;;;;;7.23;1.50;;;;;;;12.45;81.07;100781.69;4989223;28;20556;-72
2022/09/18 10:32:12;;;;;;;4.60;1.27;;;;;;;12.36;82.84;100785.00;4985071;28;20188;-73
2022/09/18 10:34:45;;;;;;;4.73;1.03;;;;;;;12.26;82.42;100774.66;4970488;28;20203;-72
2022/09/18 10:37:17;;;;;;;6.90;2.00;;;;;;;12.21;83.66;100781.44;4964717;28;20698;-73
2022/09/18 10:39:52;;;;;;;4.63;1.50;;;;;;;12.45;85.26;100779.97;5000587;28;20218;-72
2022/09/18 10:42:22;;;;;;;5.20;1.80;;;;;;;16.10;75.54;100764.97;4989079;28;20183;-73
2022/09/18 10:44:52;;;;;;;4.30;1.47;;;;;;;17.44;64.58;100754.56;4988409;28;20560;-73
2022/09/18 10:47:25;;;;;;;4.57;1.20;;;;;;;16.49;68.38;100754.47;4984374;28;20182;-73
2022/09/18 10:49:56;;;;;;;5.47;1.30;;;;;;;22.84;49.47;100730.16;5007360;28;20212;-73
2022/09/18 10:52:36;;;;;;;3.05;1.33;;;;;;;24.16;45.10;100717.63;4989816;28;20182;-74
2022/09/18 10:55:21;;;;;;;4.43;1.52;;;;;;;22.84;46.13;100732.78;4999341;28;20243;-74
2022/09/18 10:57:57;;;;;;;4.82;1.65;;;;;;;24.43;41.98;100715.72;4991604;28;20224;-73
2022/09/18 11:00:24;;;;;;;4.07;1.50;;;;;;;24.00;44.25;100716.53;4967113;28;20238;-73
2022/09/18 11:02:56;;;;;;;3.40;1.38;;;;;;;27.00;37.91;100697.13;4991247;28;20689;-73
2022/09/18 11:05:31;;;;;;;4.78;1.52;;;;;;;26.35;37.75;100709.97;4990097;28;20210;-74
2022/09/18 11:08:13;;;;;;;5.05;1.23;;;;;;;20.11;51.62;100745.31;4993885;28;20188;-74
2022/09/18 11:10:39;;;;;;;7.20;1.47;;;;;;;17.64;58.63;100750.91;4973096;28;20217;-73
2022/09/18 11:13:05;;;;;;;7.93;2.00;;;;;;;23.08;47.16;100726.75;4990594;28;20187;-74
2022/09/18 11:15:51;;;;;;;4.82;1.60;;;;;;;26.30;40.06;100710.19;4986362;28;20592;-74
2022/09/18 11:18:17;;;;;;;3.83;1.67;;;;;;;20.79;48.25;100716.00;4990600;28;20190;-75
2022/09/18 11:20:45;;;;;;;3.72;1.40;;;;;;;22.61;46.21;100701.31;4989920;28;20216;-75
2022/09/18 11:23:27;;;;;;;3.67;1.48;;;;;;;22.90;45.35;100697.75;4989242;28;20607;-74
2022/09/18 11:26:19;;;;;;;3.67;1.38;;;;;;;21.75;48.38;100708.28;4991230;28;20741;-74
2022/09/18 11:29:03;;;;;;;2.00;1.08;;;;;;;21.36;48.68;100698.91;4996847;28;20184;-75
2022/09/18 11:31:40;;;;;;;2.72;1.20;;;;;;;21.47;50.32;100700.31;4993170;28;20207;-74
2022/09/18 11:34:18;;;;;;;3.03;1.10;;;;;;;21.02;47.94;100690.28;4996716;28;20752;-75
2022/09/18 11:36:47;;;;;;;2.85;1.27;;;;;;;20.87;48.84;100688.03;4995049;28;20199;-75
2022/09/18 11:39:21;;;;;;;5.00;1.20;;;;;;;20.50;46.27;100679.41;4991435;28;20176;-76
2022/09/18 11:41:49;;;;;;;4.17;1.20;;;;;;;20.38;47.25;100687.47;4994338;28;20444;-73
2022/09/18 11:44:25;;;;;;;3.20;1.20;;;;;;;20.34;46.79;100678.03;4978457;28;20568;-76
2022/09/18 11:47:25;;;;;;;4.07;1.20;;;;;;;20.50;46.71;100674.19;4995086;28;20187;-76
2022/09/18 11:50:10;;;;;;;2.83;1.20;;;;;;;20.77;47.00;100686.56;5008223;28;20240;-75
2022/09/18 11:52:46;;;;;;;3.80;1.00;;;;;;;20.52;47.13;100672.41;5001083;28;20185;-76
2022/09/18 11:55:36;;;;;;;2.23;0.73;;;;;;;19.98;44.83;100679.69;4998691;28;20278;-75